Time;durP1;ratioP1;P1;durP2;ratioP2;P2;SDS_P1;SDS_P2;PMS_P1;PMS_P2;Temp;Humidity;BMP_temperature;BMP_pressure;BME280_temperature;BME280_humidity;BME280_pressure;Samples;Min_cycle;Max_cycle;Signal;HPM_P1;HPM_P2
2022/05/05 00:01:26;;;;;;;;;;;;;;;19.68;50.19;99819.19;4490187;31;34007;-67
2022/05/05 00:03:54;;;;;;;;;;;;;;;19.96;49.25;99826.94;4486364;31;34042;-68
2022/05/05 00:06:23;;;;;;;;;;;;;;;19.88;49.63;99827.81;4487975;31;34388;-68
2022/05/05 00:08:51;;;;;;;;;;;;;;;19.13;51.22;99832.53;4485461;31;33606;-70
2022/05/05 00:14:24;;;;;;;;;;;;;;;19.33;50.96;99828.50;4491500;31;34384;-68
2022/05/05 00:16:59;;;;;;;;;;;;;;;19.42;50.56;99827.50;4484418;31;34145;-68
2022/05/05 00:19:28;;;;;;;;;;;;;;;19.43;50.70;99831.06;4490362;31;33199;-67
2022/05/05 00:21:56;;;;;;;;;;;;;;;19.31;50.96;99828.66;4489829;31;34272;-66
2022/05/05 00:24:24;;;;;;;;;;;;;;;19.15;51.53;99833.25;4492894;31;34306;-68
2022/05/05 00:26:52;;;;;;;;;;;;;;;19.08;51.42;99836.62;4486964;31;34522;-68
2022/05/05 00:29:20;;;;;;;;;;;;;;;19.05;51.88;99827.97;4489154;31;33444;-66
2022/05/05 00:31:48;;;;;;;;;;;;;;;19.18;51.28;99832.91;4492680;31;35327;-68
2022/05/05 00:34:16;;;;;;;;;;;;;;;19.24;50.83;99833.06;4500339;31;34055;-67
2022/05/05 00:36:44;;;;;;;;;;;;;;;19.16;51.00;99821.34;4486101;31;34058;-70
2022/05/05 00:39:12;;;;;;;;;;;;;;;18.80;51.72;99821.66;4483745;32;32178;-69
2022/05/05 00:41:43;;;;;;;;;;;;;;;19.03;51.04;99817.28;4469138;32;32539;-67
2022/05/05 00:44:12;;;;;;;;;;;;;;;19.00;51.42;99814.03;4490782;31;34372;-68
2022/05/05 00:46:39;;;;;;;;;;;;;;;19.14;50.91;99818.81;4491681;31;33009;-69
2022/05/05 00:49:07;;;;;;;;;;;;;;;19.03;51.37;99811.84;4490318;31;33395;-66
2022/05/05 00:51:35;;;;;;;;;;;;;;;18.88;51.90;99813.53;4495318;31;34000;-67
2022/05/05 00:54:04;;;;;;;;;;;;;;;18.99;51.63;99809.66;4487287;31;33102;-67
2022/05/05 00:56:31;;;;;;;;;;;;;;;19.00;51.83;99809.47;4487234;31;35586;-69
2022/05/05 00:59:00;;;;;;;;;;;;;;;18.99;51.88;99806.94;4496068;31;33660;-69
2022/05/05 01:01:31;;;;;;;;;;;;;;;19.03;51.72;99811.00;4492897;31;34314;-68
2022/05/05 01:04:00;;;;;;;;;;;;;;;19.06;51.62;99808.81;4483594;31;33126;-71
2022/05/05 01:06:28;;;;;;;;;;;;;;;19.03;51.97;99802.87;4486110;31;34249;-68
2022/05/05 01:08:56;;;;;;;;;;;;;;;19.01;52.10;99803.03;4492744;31;34500;-72
2022/05/05 01:11:25;;;;;;;;;;;;;;;18.89;52.45;99809.81;4492201;31;35538;-71
2022/05/05 01:13:53;;;;;;;;;;;;;;;19.11;51.80;99811.03;4489566;31;35601;-73
2022/05/05 01:16:21;;;;;;;;;;;;;;;19.20;51.50;99812.72;4470005;31;33963;-70
2022/05/05 01:18:55;;;;;;;;;;;;;;;18.92;52.10;99812.19;4479895;31;34167;-71
2022/05/05 01:21:23;;;;;;;;;;;;;;;19.07;51.73;99810.50;4474813;31;33390;-68
2022/05/05 01:23:52;;;;;;;;;;;;;;;19.18;51.18;99820.19;4492096;31;33780;-67
2022/05/05 01:29:09;;;;;;;;;;;;;;;18.68;52.66;99823.78;4493594;31;33423;-68
2022/05/05 01:31:36;;;;;;;;;;;;;;;18.92;51.94;99823.03;4474772;31;34074;-69
2022/05/05 01:34:04;;;;;;;;;;;;;;;19.01;51.58;99818.47;4491992;31;35725;-69
2022/05/05 01:36:32;;;;;;;;;;;;;;;18.96;51.67;99820.81;4493027;31;35153;-70
2022/05/05 01:39:00;;;;;;;;;;;;;;;18.96;51.68;99821.66;4489341;31;32085;-71
2022/05/05 01:41:30;;;;;;;;;;;;;;;19.02;51.64;99822.88;4485715;31;35086;-70
2022/05/05 01:43:59;;;;;;;;;;;;;;;18.89;52.19;99830.66;4486334;31;34266;-69
2022/05/05 01:46:26;;;;;;;;;;;;;;;18.87;52.36;99832.66;4485924;32;33975;-69
2022/05/05 01:48:54;;;;;;;;;;;;;;;19.12;51.50;99836.28;4491393;31;33682;-68
2022/05/05 01:51:23;;;;;;;;;;;;;;;18.90;51.85;99840.47;4490261;31;32963;-69
2022/05/05 01:53:51;;;;;;;;;;;;;;;18.88;51.95;99847.94;4495255;31;34136;-70
2022/05/05 01:56:20;;;;;;;;;;;;;;;19.00;51.54;99854.72;4499515;31;34244;-70
2022/05/05 01:58:48;;;;;;;;;;;;;;;18.96;51.56;99872.34;4483207;31;32631;-69
2022/05/05 02:01:16;;;;;;;;;;;;;;;18.81;51.83;99882.97;4481169;31;33174;-71
2022/05/05 02:03:44;;;;;;;;;;;;;;;18.81;51.66;99886.56;4486752;31;35309;-69
2022/05/05 02:06:13;;;;;;;;;;;;;;;18.70;51.77;99889.53;4490955;31;33141;-71
2022/05/05 02:08:43;;;;;;;;;;;;;;;18.35;52.32;99887.84;4495709;31;33521;-70
2022/05/05 02:11:12;;;;;;;;;;;;;;;18.29;52.43;99886.63;4472238;31;33468;-70
2022/05/05 02:13:40;;;;;;;;;;;;;;;18.29;52.59;99891.19;4482554;31;34445;-68
2022/05/05 02:16:09;;;;;;;;;;;;;;;18.41;52.38;99889.91;4489424;31;34178;-69
2022/05/05 02:18:38;;;;;;;;;;;;;;;18.47;52.32;99891.97;4495218;31;32255;-68
2022/05/05 02:21:07;;;;;;;;;;;;;;;18.34;52.51;99899.69;4475014;31;33430;-69
2022/05/05 02:23:37;;;;;;;;;;;;;;;18.36;52.58;99898.53;4496683;31;34458;-68
2022/05/05 02:26:06;;;;;;;;;;;;;;;18.26;52.69;99894.22;4486163;31;34189;-70
2022/05/05 02:28:35;;;;;;;;;;;;;;;18.31;52.29;99890.03;4493307;31;32425;-71
2022/05/05 02:31:04;;;;;;;;;;;;;;;18.38;51.88;99887.53;4490662;31;33244;-69
2022/05/05 02:33:33;;;;;;;;;;;;;;;18.31;51.79;99890.03;4483845;31;33266;-68
2022/05/05 02:38:50;;;;;;;;;;;;;;;17.74;53.28;99895.03;4491660;31;32396;-70
2022/05/05 02:41:18;;;;;;;;;;;;;;;18.01;52.43;99885.97;4489889;31;33937;-71
2022/05/05 02:43:53;;;;;;;;;;;;;;;17.98;52.51;99886.28;4487150;31;34020;-70
2022/05/05 02:46:32;;;;;;;;;;;;;;;17.87;52.79;99895.50;4484581;31;33585;-72
2022/05/05 02:49:01;;;;;;;;;;;;;;;18.00;52.32;99884.25;4481592;31;32637;-71
2022/05/05 02:51:30;;;;;;;;;;;;;;;17.99;52.45;99887.13;4472525;31;35173;-71
2022/05/05 02:56:45;;;;;;;;;;;;;;;18.01;52.12;99882.38;4484231;31;34095;-70
2022/05/05 02:59:14;;;;;;;;;;;;;;;18.01;52.03;99879.66;4491794;31;33918;-70
2022/05/05 03:01:42;;;;;;;;;;;;;;;17.99;52.16;99882.56;4483836;31;33938;-71
2022/05/05 03:04:11;;;;;;;;;;;;;;;17.98;52.18;99880.00;4497040;31;34305;-71
2022/05/05 03:06:39;;;;;;;;;;;;;;;17.85;52.43;99883.16;4497670;31;34881;-70
2022/05/05 03:09:07;;;;;;;;;;;;;;;17.41;53.65;99888.50;4476932;31;33239;-69
2022/05/05 03:11:35;;;;;;;;;;;;;;;17.50;53.17;99879.44;4487860;31;33060;-69
2022/05/05 03:14:04;;;;;;;;;;;;;;;17.52;53.20;99888.25;4487843;31;34284;-71
2022/05/05 03:16:33;;;;;;;;;;;;;;;17.32;53.96;99873.19;4490422;31;32911;-70
2022/05/05 03:19:02;;;;;;;;;;;;;;;17.40;53.69;99879.53;4492674;31;34355;-70
2022/05/05 03:21:30;;;;;;;;;;;;;;;17.65;52.95;99882.44;4489240;31;32955;-70
2022/05/05 03:23:58;;;;;;;;;;;;;;;17.63;52.89;99877.19;4486976;31;34346;-73
2022/05/05 03:26:26;;;;;;;;;;;;;;;17.51;53.32;99873.03;4488515;31;33228;-70
2022/05/05 03:28:55;;;;;;;;;;;;;;;17.77;52.86;99874.94;4486525;31;32593;-69
2022/05/05 03:31:24;;;;;;;;;;;;;;;17.59;53.45;99867.69;4487061;31;35176;-67
2022/05/05 03:33:54;;;;;;;;;;;;;;;17.74;53.16;99870.66;4488925;31;33782;-69
2022/05/05 03:36:23;;;;;;;;;;;;;;;17.84;53.08;99860.62;4482826;31;33046;-69
2022/05/05 03:38:54;;;;;;;;;;;;;;;17.88;53.12;99869.25;4485234;31;32335;-66
2022/05/05 03:41:24;;;;;;;;;;;;;;;17.83;53.08;99875.16;4484523;31;34201;-69
2022/05/05 03:43:53;;;;;;;;;;;;;;;17.86;52.94;99874.84;4492359;31;34393;-68
2022/05/05 03:46:21;;;;;;;;;;;;;;;18.05;52.36;99867.53;4482329;31;32818;-68
2022/05/05 03:48:52;;;;;;;;;;;;;;;18.04;52.64;99866.69;4490521;31;31718;-69
2022/05/05 03:51:22;;;;;;;;;;;;;;;18.20;52.15;99868.62;4488166;31;34072;-68
2022/05/05 03:53:52;;;;;;;;;;;;;;;18.19;52.37;99872.34;4485605;31;33001;-68
2022/05/05 03:56:23;;;;;;;;;;;;;;;18.30;52.30;99868.53;4486855;31;34265;-69
2022/05/05 03:58:51;;;;;;;;;;;;;;;18.32;52.44;99871.91;4482052;31;34119;-67
2022/05/05 04:01:22;;;;;;;;;;;;;;;18.00;53.61;99881.53;4495519;31;34242;-68
2022/05/05 04:03:51;;;;;;;;;;;;;;;18.23;53.04;99883.72;4473902;31;32679;-69
2022/05/05 04:06:20;;;;;;;;;;;;;;;18.21;52.95;99878.47;4490776;31;34401;-66
2022/05/05 04:08:49;;;;;;;;;;;;;;;17.88;54.18;99878.25;4490548;31;34424;-69
2022/05/05 04:11:18;;;;;;;;;;;;;;;18.34;53.20;99872.59;4485940;31;34468;-68
2022/05/05 04:13:47;;;;;;;;;;;;;;;18.36;53.29;99874.16;4482981;31;34238;-67
2022/05/05 04:16:15;;;;;;;;;;;;;;;18.43;53.46;99876.22;4493245;31;33974;-70
2022/05/05 04:18:45;;;;;;;;;;;;;;;18.59;53.07;99876.28;4478697;32;33508;-68
2022/05/05 04:21:14;;;;;;;;;;;;;;;18.49;53.35;99880.97;4486471;31;34059;-66
2022/05/05 04:23:44;;;;;;;;;;;;;;;18.62;53.16;99881.38;4491408;31;34495;-68
2022/05/05 04:26:13;;;;;;;;;;;;;;;18.72;52.83;99879.41;4484342;31;34073;-67
2022/05/05 04:28:41;;;;;;;;;;;;;;;18.67;53.25;99879.00;4493174;31;32154;-67
2022/05/05 04:31:14;;;;;;;;;;;;;;;18.34;53.97;99892.41;4486614;31;32907;-68
2022/05/05 04:33:43;;;;;;;;;;;;;;;18.44;53.64;99895.00;4486275;31;34122;-69
2022/05/05 04:36:11;;;;;;;;;;;;;;;18.14;54.49;99890.97;4493320;31;35577;-69
2022/05/05 04:38:40;;;;;;;;;;;;;;;18.48;53.37;99887.41;4485751;31;32894;-67
2022/05/05 04:41:08;;;;;;;;;;;;;;;18.67;53.27;99892.56;4494792;31;33737;-68
2022/05/05 04:43:38;;;;;;;;;;;;;;;18.76;52.67;99893.50;4493288;31;34111;-68
2022/05/05 04:46:09;;;;;;;;;;;;;;;18.26;53.84;99895.06;4480057;32;33461;-67
2022/05/05 04:48:37;;;;;;;;;;;;;;;18.47;53.66;99894.69;4489361;31;32695;-70
2022/05/05 04:51:06;;;;;;;;;;;;;;;18.72;53.12;99897.50;4489252;31;33578;-69
2022/05/05 04:53:35;;;;;;;;;;;;;;;18.89;52.43;99895.75;4488662;31;34428;-68
2022/05/05 04:56:03;;;;;;;;;;;;;;;18.29;54.25;99894.75;4492312;31;34323;-67
2022/05/05 04:58:34;;;;;;;;;;;;;;;18.39;54.29;99897.34;4493657;31;32870;-68
2022/05/05 05:01:03;;;;;;;;;;;;;;;18.82;53.05;99895.56;4491303;31;32982;-68
2022/05/05 05:03:40;;;;;;;;;;;;;;;18.98;52.72;99897.47;4486039;31;34355;-68
2022/05/05 05:06:21;;;;;;;;;;;;;;;18.90;52.83;99889.28;4490038;31;34529;-69
2022/05/05 05:08:50;;;;;;;;;;;;;;;18.62;53.87;99882.22;4480352;31;34339;-67
2022/05/05 05:11:19;;;;;;;;;;;;;;;18.66;54.08;99887.31;4496086;31;34267;-67
2022/05/05 05:13:48;;;;;;;;;;;;;;;18.75;53.93;99889.94;4479413;31;33610;-67
2022/05/05 05:16:16;;;;;;;;;;;;;;;18.95;53.59;99893.22;4473134;31;33763;-70
2022/05/05 05:19:05;;;;;;;;;;;;;;;19.05;53.27;99891.19;4495809;31;34815;-69
2022/05/05 05:21:33;;;;;;;;;;;;;;;19.19;52.92;99888.84;4484246;31;35414;-69
2022/05/05 05:24:04;;;;;;;;;;;;;;;19.25;52.70;99889.03;4485248;31;34142;-68
2022/05/05 05:26:33;;;;;;;;;;;;;;;19.24;52.80;99895.47;4490626;31;32968;-69
2022/05/05 05:29:02;;;;;;;;;;;;;;;19.20;52.73;99890.56;4490152;31;33951;-69
2022/05/05 05:31:30;;;;;;;;;;;;;;;19.05;53.00;99902.06;4491076;31;33934;-70
2022/05/05 05:33:59;;;;;;;;;;;;;;;18.35;54.85;99895.97;4482003;31;34443;-70
2022/05/05 05:36:28;;;;;;;;;;;;;;;18.55;54.48;99899.28;4498091;31;34943;-70
2022/05/05 05:38:56;;;;;;;;;;;;;;;18.38;55.43;99901.91;4487053;31;32605;-70
2022/05/05 05:41:25;;;;;;;;;;;;;;;18.36;55.03;99909.37;4493332;31;35081;-71
2022/05/05 05:43:53;;;;;;;;;;;;;;;18.19;55.57;99904.84;4497617;31;35363;-71
2022/05/05 05:46:22;;;;;;;;;;;;;;;18.01;55.88;99907.63;4493499;31;34172;-70
2022/05/05 05:48:51;;;;;;;;;;;;;;;18.08;55.70;99902.44;4484902;31;33390;-69
2022/05/05 05:51:24;;;;;;;;;;;;;;;18.65;54.27;99901.87;4482778;32;33989;-71
2022/05/05 05:54:04;;;;;;;;;;;;;;;18.29;54.52;99904.75;4482096;31;33417;-71
2022/05/05 05:56:32;;;;;;;;;;;;;;;18.01;55.15;99913.03;4484279;31;34291;-70
2022/05/05 05:59:04;;;;;;;;;;;;;;;18.00;55.78;99918.59;4491829;31;33204;-71
2022/05/05 06:04:19;;;;;;;;;;;;;;;18.26;55.05;99919.44;4491173;31;32967;-72
2022/05/05 06:06:47;;;;;;;;;;;;;;;18.16;54.91;99918.72;4491725;31;34341;-72
2022/05/05 06:09:16;;;;;;;;;;;;;;;18.48;53.68;99917.22;4493556;31;33075;-71
2022/05/05 06:11:45;;;;;;;;;;;;;;;18.14;54.58;99926.16;4494962;31;34847;-70
2022/05/05 06:14:13;;;;;;;;;;;;;;;18.18;54.15;99922.13;4484350;31;34345;-71
2022/05/05 06:16:41;;;;;;;;;;;;;;;17.89;54.84;99915.16;4489219;31;33886;-70
2022/05/05 06:19:09;;;;;;;;;;;;;;;17.97;55.36;99924.34;4485267;31;33551;-72
2022/05/05 06:21:37;;;;;;;;;;;;;;;17.70;55.83;99926.13;4481208;32;35113;-69
2022/05/05 06:24:06;;;;;;;;;;;;;;;18.36;54.35;99922.94;4493790;31;34556;-68
2022/05/05 06:26:35;;;;;;;;;;;;;;;18.05;54.84;99927.97;4487577;31;34660;-68
2022/05/05 06:29:04;;;;;;;;;;;;;;;17.90;56.43;99929.53;4484381;31;33169;-70
2022/05/05 06:31:33;;;;;;;;;;;;;;;18.23;55.07;99937.88;4493206;31;34853;-70
2022/05/05 06:34:01;;;;;;;;;;;;;;;18.18;55.41;99929.41;4475686;31;33625;-69
2022/05/05 06:36:30;;;;;;;;;;;;;;;18.67;54.88;99932.37;4486400;31;34314;-68
2022/05/05 06:39:05;;;;;;;;;;;;;;;18.91;53.61;99937.97;4482629;32;33556;-71
2022/05/05 06:41:43;;;;;;;;;;;;;;;18.26;55.24;99945.69;4471169;32;32597;-71
2022/05/05 06:44:12;;;;;;;;;;;;;;;18.41;55.34;99938.69;4481113;32;34203;-69
2022/05/05 06:46:41;;;;;;;;;;;;;;;18.83;54.17;99948.75;4485485;31;34108;-70
2022/05/05 06:49:10;;;;;;;;;;;;;;;19.17;53.97;99948.72;4486203;31;33676;-71
2022/05/05 06:51:38;;;;;;;;;;;;;;;18.62;54.66;99939.16;4488534;31;33887;-71
2022/05/05 06:54:07;;;;;;;;;;;;;;;18.32;55.59;99945.06;4484508;31;33102;-72
2022/05/05 06:56:34;;;;;;;;;;;;;;;18.19;54.44;99947.34;4492517;31;34146;-71
2022/05/05 06:59:02;;;;;;;;;;;;;;;17.72;56.79;99945.78;4475782;31;34042;-71
2022/05/05 07:07:14;;;;;;;;;;;;;;;18.32;54.77;99955.91;4494038;31;33784;-71
2022/05/05 07:12:30;;;;;;;;;;;;;;;18.51;53.39;99950.25;4492463;31;34088;-71
2022/05/05 07:15:07;;;;;;;;;;;;;;;18.75;53.47;99952.28;4490204;31;34347;-69
2022/05/05 07:17:40;;;;;;;;;;;;;;;19.23;52.03;99948.06;4488312;31;34202;-70
2022/05/05 07:20:10;;;;;;;;;;;;;;;19.25;51.56;99954.16;4496291;31;34488;-72
2022/05/05 07:22:42;;;;;;;;;;;;;;;18.99;51.68;99956.13;4487033;31;32885;-71
2022/05/05 07:25:13;;;;;;;;;;;;;;;19.48;50.69;99965.22;4484751;31;33341;-71
2022/05/05 07:27:44;;;;;;;;;;;;;;;19.20;51.51;99961.97;4495016;31;32904;-70
2022/05/05 07:30:15;;;;;;;;;;;;;;;18.84;52.62;99961.28;4487219;31;34341;-71
2022/05/05 07:32:49;;;;;;;;;;;;;;;19.15;52.28;99958.88;4487989;31;32788;-71
2022/05/05 07:35:18;;;;;;;;;;;;;;;19.14;51.87;99965.34;4481130;31;32662;-70
2022/05/05 07:37:50;;;;;;;;;;;;;;;19.73;50.01;99966.16;4495015;31;33003;-72
2022/05/05 07:40:21;;;;;;;;;;;;;;;19.19;51.32;99971.09;4485476;31;34194;-70
2022/05/05 07:42:53;;;;;;;;;;;;;;;19.14;51.30;99970.75;4495775;31;35190;-71
2022/05/05 07:45:26;;;;;;;;;;;;;;;19.49;50.22;99968.81;4484418;31;34344;-71
2022/05/05 07:47:59;;;;;;;;;;;;;;;19.50;50.52;99963.22;4493743;31;33570;-69
2022/05/05 07:50:29;;;;;;;;;;;;;;;19.83;50.07;99966.00;4489259;31;33532;-71
2022/05/05 07:52:59;;;;;;;;;;;;;;;19.80;50.47;99963.59;4471321;31;34092;-71
2022/05/05 07:55:28;;;;;;;;;;;;;;;19.83;49.72;99967.84;4488297;31;32847;-72
2022/05/05 07:57:57;;;;;;;;;;;;;;;19.71;49.71;99960.06;4495600;31;33953;-71
2022/05/05 08:00:27;;;;;;;;;;;;;;;19.90;50.45;99966.16;4487720;31;33218;-71
2022/05/05 08:03:02;;;;;;;;;;;;;;;20.41;48.63;99974.94;4494235;31;34284;-72
2022/05/05 08:05:35;;;;;;;;;;;;;;;19.77;48.24;99967.53;4489330;31;33032;-69
2022/05/05 08:08:07;;;;;;;;;;;;;;;19.69;49.44;99972.94;4496961;31;33068;-72
2022/05/05 08:10:40;;;;;;;;;;;;;;;20.33;48.14;99980.41;4497445;31;32013;-70
2022/05/05 08:13:11;;;;;;;;;;;;;;;20.19;48.32;99979.22;4496264;31;32966;-71
2022/05/05 08:15:45;;;;;;;;;;;;;;;19.36;50.63;99990.12;4500358;31;34276;-70
2022/05/05 08:18:17;;;;;;;;;;;;;;;20.08;47.99;99982.31;4488743;31;32787;-71
2022/05/05 08:20:53;;;;;;;;;;;;;;;20.19;48.06;99985.53;4495357;31;32198;-71
2022/05/05 08:23:23;;;;;;;;;;;;;;;20.86;47.31;99984.38;4483946;31;35269;-70
2022/05/05 08:28:43;;;;;;;;;;;;;;;20.74;45.86;99972.19;4484310;32;33330;-71
2022/05/05 08:31:15;;;;;;;;;;;;;;;20.87;45.83;99970.63;4482021;31;33798;-70
2022/05/05 08:33:59;;;;;;;;;;;;;;;20.90;46.82;99975.72;4485419;31;33914;-72
2022/05/05 08:36:44;;;;;;;;;;;;;;;21.25;44.84;99978.97;4488013;31;32661;-70
2022/05/05 08:39:29;;;;;;;;;;;;;;;21.16;45.85;99980.03;4500126;31;32996;-72
2022/05/05 08:42:10;;;;;;;;;;;;;;;21.38;44.16;99971.09;4495696;31;32884;-67
2022/05/05 08:44:47;;;;;;;;;;;;;;;21.13;45.38;99978.50;4487259;31;35339;-67
2022/05/05 08:47:27;;;;;;;;;;;;;;;21.25;44.56;99983.53;4494353;31;33233;-68
2022/05/05 08:49:59;;;;;;;;;;;;;;;21.33;43.59;99978.06;4500885;31;32814;-67
2022/05/05 08:52:31;;;;;;;;;;;;;;;21.26;43.47;99980.66;4495160;31;33380;-67
2022/05/05 08:55:04;;;;;;;;;;;;;;;20.84;43.79;99983.72;4480690;31;33850;-69
2022/05/05 08:57:38;;;;;;;;;;;;;;;21.76;42.38;99992.13;4489190;31;34107;-68
2022/05/05 09:00:10;;;;;;;;;;;;;;;21.29;42.72;99980.28;4497133;31;32963;-68
2022/05/05 09:02:44;;;;;;;;;;;;;;;21.11;42.93;99983.25;4490575;31;33640;-68
2022/05/05 09:05:41;;;;;;;;;;;;;;;21.49;43.03;99988.03;4480434;31;34106;-67
2022/05/05 09:08:24;;;;;;;;;;;;;;;21.72;42.16;99993.50;4500028;31;33209;-69
2022/05/05 09:11:08;;;;;;;;;;;;;;;21.97;42.63;99986.00;4485947;31;32972;-69
2022/05/05 09:13:46;;;;;;;;;;;;;;;22.21;41.99;99991.25;4495572;31;31811;-68
2022/05/05 09:16:28;;;;;;;;;;;;;;;22.27;42.31;99997.88;4493019;31;33217;-68
2022/05/05 09:19:12;;;;;;;;;;;;;;;22.59;40.25;99991.25;4492490;31;34429;-71
2022/05/05 09:21:48;;;;;;;;;;;;;;;22.36;41.29;99999.50;4485990;31;34754;-69
2022/05/05 09:24:35;;;;;;;;;;;;;;;22.87;40.05;100005.09;4484352;31;34679;-70
2022/05/05 09:27:14;;;;;;;;;;;;;;;22.55;40.42;99996.22;4482876;31;32891;-70
2022/05/05 09:29:59;;;;;;;;;;;;;;;23.38;39.27;100001.59;4487114;31;35229;-70
2022/05/05 09:32:38;;;;;;;;;;;;;;;23.60;38.03;99992.41;4488084;31;34041;-70
2022/05/05 09:35:18;;;;;;;;;;;;;;;23.83;38.24;99992.25;4486563;31;32172;-69
2022/05/05 09:37:55;;;;;;;;;;;;;;;23.57;38.41;99998.25;4492107;31;32620;-69
2022/05/05 09:40:28;;;;;;;;;;;;;;;23.66;37.65;99999.00;4486764;31;33481;-69
2022/05/05 09:43:01;;;;;;;;;;;;;;;23.48;37.80;99997.53;4488186;31;33963;-71
2022/05/05 09:45:32;;;;;;;;;;;;;;;23.98;36.14;99988.59;4496745;31;34349;-69
2022/05/05 09:48:06;;;;;;;;;;;;;;;24.24;35.89;99988.84;4485093;31;34163;-70
2022/05/05 09:50:37;;;;;;;;;;;;;;;24.83;36.14;99995.84;4490685;31;35398;-69
2022/05/05 09:58:52;;;;;;;;;;;;;;;24.18;33.97;99989.66;4492855;31;35080;-68
2022/05/05 10:01:31;;;;;;;;;;;;;;;24.81;33.85;99993.28;4485792;31;35398;-70
2022/05/05 10:04:00;;;;;;;;;;;;;;;24.32;34.82;100002.38;4476730;31;33007;-69
2022/05/05 10:06:40;;;;;;;;;;;;;;;24.77;34.10;99988.41;4471278;31;32290;-69
2022/05/05 10:09:10;;;;;;;;;;;;;;;25.39;33.04;99983.91;4488724;31;34858;-74
2022/05/05 10:11:42;;;;;;;;;;;;;;;25.42;32.51;99987.06;4479659;31;35347;-69
2022/05/05 10:14:16;;;;;;;;;;;;;;;25.59;32.03;99986.72;4485125;31;34541;-68
2022/05/05 10:16:46;;;;;;;;;;;;;;;25.39;31.90;99978.41;4487315;31;33148;-69
2022/05/05 10:19:15;;;;;;;;;;;;;;;25.88;31.54;99989.12;4480759;32;34098;-70
2022/05/05 10:21:56;;;;;;;;;;;;;;;24.96;32.20;99992.31;4482398;31;34333;-69
2022/05/05 10:24:28;;;;;;;;;;;;;;;25.41;32.12;99990.88;4482683;31;33923;-70
2022/05/05 10:26:57;;;;;;;;;;;;;;;25.69;30.80;99988.00;4468562;32;33311;-70
2022/05/05 10:29:31;;;;;;;;;;;;;;;25.95;30.96;99979.00;4467262;32;34271;-69
2022/05/05 10:32:06;;;;;;;;;;;;;;;26.27;30.40;99981.16;4483672;31;34320;-69
2022/05/05 10:34:34;;;;;;;;;;;;;;;26.00;30.91;99981.13;4477974;31;33034;-68
2022/05/05 10:37:05;;;;;;;;;;;;;;;26.82;29.55;99979.00;4496289;31;32252;-69
2022/05/05 10:39:41;;;;;;;;;;;;;;;26.53;30.73;99978.41;4494135;31;33580;-70
2022/05/05 10:42:14;;;;;;;;;;;;;;;26.03;31.22;99977.97;4481706;31;34091;-70
2022/05/05 10:45:01;;;;;;;;;;;;;;;25.76;31.69;99979.81;4497896;31;34019;-69
2022/05/05 10:47:47;;;;;;;;;;;;;;;26.24;30.98;99966.78;4489547;31;32187;-69
2022/05/05 10:50:33;;;;;;;;;;;;;;;25.03;30.89;99979.50;4491558;31;33135;-69
2022/05/05 10:53:01;;;;;;;;;;;;;;;25.95;31.15;99983.66;4492229;31;33083;-70
2022/05/05 10:55:29;;;;;;;;;;;;;;;26.64;30.79;99982.41;4489644;31;33221;-70
2022/05/05 10:58:35;;;;;;;;;;;;;;;26.74;30.57;99981.97;4489087;31;32022;-70
2022/05/05 11:01:08;;;;;;;;;;;;;;;27.03;29.95;99976.00;4483337;31;33684;-69
2022/05/05 11:03:35;;;;;;;;;;;;;;;26.44;30.50;99976.91;4490994;31;34385;-71
2022/05/05 11:06:16;;;;;;;;;;;;;;;27.13;29.22;99970.91;4486506;31;32544;-71
2022/05/05 11:08:53;;;;;;;;;;;;;;;26.77;30.62;99973.28;4480789;32;33080;-70
2022/05/05 11:23:01;;;;;;;;;;;;;;;26.71;29.30;99973.13;4480246;31;32672;-69
2022/05/05 11:25:28;;;;;;;;;;;;;;;26.32;29.88;99962.97;4472437;31;33135;-69
2022/05/05 11:27:56;;;;;;;;;;;;;;;26.59;29.82;99961.09;4466896;32;35148;-69
2022/05/05 11:30:24;;;;;;;;;;;;;;;26.54;30.87;99958.13;4483619;31;33532;-69
2022/05/05 11:32:52;;;;;;;;;;;;;;;26.57;30.60;99954.97;4481706;31;33035;-69
2022/05/05 11:35:40;;;;;;;;;;;;;;;26.33;31.30;99958.34;4486335;31;33173;-70
2022/05/05 11:38:11;;;;;;;;;;;;;;;26.09;31.03;99957.91;4479838;31;34776;-69
2022/05/05 11:40:39;;;;;;;;;;;;;;;26.66;30.79;99953.69;4484967;31;32178;-70
2022/05/05 11:45:54;;;;;;;;;;;;;;;27.25;30.31;99950.97;4482466;31;34006;-70
2022/05/05 11:48:23;;;;;;;;;;;;;;;26.59;30.40;99957.50;4496786;31;34432;-69
2022/05/05 11:51:07;;;;;;;;;;;;;;;26.00;30.80;99943.59;4466611;32;31780;-69
2022/05/05 11:53:35;;;;;;;;;;;;;;;26.93;29.20;99945.34;4481975;31;32979;-71
2022/05/05 11:56:04;;;;;;;;;;;;;;;27.01;29.28;99934.16;4481516;31;34487;-70
2022/05/05 12:01:39;;;;;;;;;;;;;;;26.66;29.93;99930.88;4477392;32;33198;-69
2022/05/05 12:04:09;;;;;;;;;;;;;;;26.61;29.52;99930.66;4486395;31;35297;-70
2022/05/05 12:06:37;;;;;;;;;;;;;;;26.94;28.30;99922.34;4479046;31;33932;-69
2022/05/05 12:09:06;;;;;;;;;;;;;;;26.83;29.81;99932.09;4491707;31;33935;-71
2022/05/05 12:11:35;;;;;;;;;;;;;;;26.11;30.49;99917.41;4489038;31;33269;-69
2022/05/05 12:14:09;;;;;;;;;;;;;;;26.59;30.27;99921.81;4489324;31;33259;-68
2022/05/05 12:16:38;;;;;;;;;;;;;;;26.84;29.40;99917.31;4497044;31;31999;-70
2022/05/05 12:19:13;;;;;;;;;;;;;;;26.66;27.86;99915.25;4492466;31;34361;-70
2022/05/05 12:22:02;;;;;;;;;;;;;;;27.12;27.88;99916.13;4480774;31;32237;-70
2022/05/05 12:24:30;;;;;;;;;;;;;;;26.93;27.78;99912.41;4481671;31;33945;-70
2022/05/05 12:27:06;;;;;;;;;;;;;;;26.73;27.91;99922.63;4467030;32;34573;-70
2022/05/05 12:29:38;;;;;;;;;;;;;;;26.65;28.75;99920.97;4469238;31;34654;-70
2022/05/05 12:32:10;;;;;;;;;;;;;;;25.26;31.17;99925.28;4486195;31;33623;-71
2022/05/05 12:34:39;;;;;;;;;;;;;;;25.70;30.82;99921.16;4490740;31;34336;-69
2022/05/05 12:37:16;;;;;;;;;;;;;;;26.53;30.00;99920.78;4481573;31;33030;-70
2022/05/05 12:39:48;;;;;;;;;;;;;;;26.47;28.87;99924.34;4481036;31;34924;-70
2022/05/05 12:42:17;;;;;;;;;;;;;;;26.38;30.00;99915.47;4481125;31;33099;-70
2022/05/05 12:44:45;;;;;;;;;;;;;;;26.14;30.80;99916.16;4476963;31;34264;-70
2022/05/05 12:47:13;;;;;;;;;;;;;;;25.39;30.46;99918.97;4484648;31;34398;-71
2022/05/05 12:49:44;;;;;;;;;;;;;;;25.89;29.73;99914.03;4481476;32;33278;-70
2022/05/05 13:00:33;;;;;;;;;;;;;;;25.37;30.33;99909.31;4484450;31;34338;-70
2022/05/05 13:03:23;;;;;;;;;;;;;;;25.89;30.35;99908.56;4488359;31;34293;-71
2022/05/05 13:05:51;;;;;;;;;;;;;;;25.72;30.16;99905.38;4485975;31;34247;-71
2022/05/05 13:08:40;;;;;;;;;;;;;;;25.91;29.39;99900.13;4481467;31;33606;-71
2022/05/05 13:11:07;;;;;;;;;;;;;;;26.07;28.88;99902.44;4481720;31;33950;-71
2022/05/05 13:13:38;;;;;;;;;;;;;;;25.89;30.10;99894.84;4482767;31;33527;-70
2022/05/05 13:16:06;;;;;;;;;;;;;;;25.61;29.43;99897.75;4488413;31;34199;-71
2022/05/05 13:18:34;;;;;;;;;;;;;;;26.07;29.02;99905.19;4494093;31;33918;-70
2022/05/05 13:21:02;;;;;;;;;;;;;;;26.22;29.41;99903.03;4481867;31;32652;-70
2022/05/05 13:23:30;;;;;;;;;;;;;;;26.42;28.80;99899.44;4480893;31;34490;-69
2022/05/05 13:25:58;;;;;;;;;;;;;;;26.83;28.39;99901.03;4485412;31;33804;-70
2022/05/05 13:28:26;;;;;;;;;;;;;;;26.56;28.90;99895.66;4474961;32;32917;-69
2022/05/05 13:30:53;;;;;;;;;;;;;;;26.01;29.33;99895.91;4480855;31;32964;-72
2022/05/05 13:33:21;;;;;;;;;;;;;;;26.56;27.94;99890.16;4484606;31;32728;-72
2022/05/05 13:35:49;;;;;;;;;;;;;;;26.34;28.74;99889.53;4482284;31;34243;-71
2022/05/05 13:38:20;;;;;;;;;;;;;;;26.90;28.12;99891.72;4481929;31;33254;-71
2022/05/05 13:40:48;;;;;;;;;;;;;;;26.98;28.36;99885.13;4484830;31;35479;-70
2022/05/05 13:43:16;;;;;;;;;;;;;;;25.95;29.01;99879.47;4488017;31;32399;-70
2022/05/05 13:45:43;;;;;;;;;;;;;;;25.68;29.80;99876.69;4489361;31;35075;-70
2022/05/05 13:48:11;;;;;;;;;;;;;;;26.56;28.41;99872.84;4482697;31;33036;-70
2022/05/05 13:50:39;;;;;;;;;;;;;;;27.25;27.82;99871.28;4473366;31;33224;-70
2022/05/05 13:53:07;;;;;;;;;;;;;;;27.22;28.14;99868.97;4484233;31;33436;-70
2022/05/05 13:55:35;;;;;;;;;;;;;;;26.94;28.46;99861.94;4468384;32;32651;-69
2022/05/05 13:58:03;;;;;;;;;;;;;;;26.43;29.73;99860.81;4489418;31;34173;-69
2022/05/05 14:00:31;;;;;;;;;;;;;;;26.22;30.25;99864.63;4485288;31;34089;-70
2022/05/05 14:02:59;;;;;;;;;;;;;;;25.95;29.49;99855.63;4489395;31;32154;-69